Church Street, Georgia
Current Conditions -  °F | °C
As of 6:52 PM on Tuesday 25 Nov 2014 (Local Time) from KATL Reporting Station
Overcast Overcast  
Wind Chill: 12°   Ceiling: 13000
Heat Index: 12°   Visibility: 10mi
Dew Point: -1°   Wind: 5mph
Humidity: 40%   Direction: 280°W
Pressure: 30.06"   Gusts: NA
Location:  33.559°N, 84.4436°W
Report Text: KATL 252352Z 28004KT 10SM BKN130 OVC200 12/M01 A3006 RMK AO2 SLP181 T01221011 10167 20122 53023
Loading
Personal Weather Stations






























Interactive Weather Map New forecast layout! Learn more

10-Day Weather Forecast

Advertisements
Track Severe Weather on mobile